Time;durP1;ratioP1;P1;durP2;ratioP2;P2;SDS_P1;SDS_P2;PMS_P1;PMS_P2;Temp;Humidity;BMP_temperature;BMP_pressure;BME280_temperature;BME280_humidity;BME280_pressure;Samples;Min_cycle;Max_cycle;Signal;HPM_P1;HPM_P2
2021/11/19 00:00:59;;;;;;;6.47;3.53;;;6.90;70.40;;;;;;2582642;53;21000;-68
2021/11/19 00:03:26;;;;;;;6.22;3.55;;;6.90;70.50;;;;;;2342735;53;21013;-67
2021/11/19 00:05:52;;;;;;;6.53;3.60;;;6.90;70.50;;;;;;2348992;54;22322;-67
2021/11/19 00:08:25;;;;;;;8.10;4.72;;;6.80;70.50;;;;;;2350046;54;21060;-68
2021/11/19 00:10:55;;;;;;;6.70;3.83;;;6.80;70.50;;;;;;2573329;53;20976;-68
2021/11/19 00:13:21;;;;;;;7.40;4.10;;;6.80;70.50;;;;;;2572576;52;20973;-68
2021/11/19 00:15:47;;;;;;;7.20;3.92;;;6.70;70.50;;;;;;2335686;54;21555;-67
2021/11/19 00:18:14;;;;;;;7.65;4.12;;;6.70;70.60;;;;;;2572931;52;20952;-67
2021/11/19 00:20:41;;;;;;;6.55;4.07;;;6.70;70.60;;;;;;2350063;54;20934;-68
2021/11/19 00:23:10;;;;;;;8.00;4.30;;;6.70;70.70;;;;;;2361975;54;21065;-67
2021/11/19 00:25:39;;;;;;;7.28;3.83;;;6.60;70.60;;;;;;2576464;52;20933;-69
2021/11/19 00:28:08;;;;;;;6.40;3.97;;;6.60;70.70;;;;;;2343605;54;21029;-69
2021/11/19 00:30:38;;;;;;;6.55;3.90;;;6.60;70.80;;;;;;2572700;53;20925;-68
2021/11/19 00:33:06;;;;;;;6.53;3.40;;;6.60;70.90;;;;;;2339963;54;20925;-68
2021/11/19 00:35:33;;;;;;;5.78;3.22;;;6.60;71.00;;;;;;2572084;52;21620;-68
2021/11/19 00:38:02;;;;;;;5.82;3.42;;;6.50;71.00;;;;;;2573696;52;20910;-68
2021/11/19 00:40:52;;;;;;;7.00;3.85;;;6.50;71.00;;;;;;2573157;52;20959;-68
2021/11/19 00:43:19;;;;;;;5.72;3.40;;;6.50;70.90;;;;;;2575544;52;21027;-68
2021/11/19 00:45:46;;;;;;;6.12;3.37;;;6.50;71.20;;;;;;2575939;52;21032;-69
2021/11/19 00:48:12;;;;;;;7.40;3.95;;;6.50;71.20;;;;;;2336262;54;21060;-68
2021/11/19 00:51:19;;;;;;;7.68;3.58;;;6.50;71.10;;;;;;2581690;53;21181;-68
2021/11/19 00:53:47;;;;;;;5.75;3.62;;;6.50;70.90;;;;;;2340537;54;21037;-68
2021/11/19 00:56:18;;;;;;;5.85;3.37;;;6.50;71.10;;;;;;2573054;53;20991;-69
2021/11/19 00:58:45;;;;;;;5.57;3.58;;;6.50;71.10;;;;;;2574297;52;20968;-69
2021/11/19 01:01:15;;;;;;;6.50;3.42;;;6.40;71.00;;;;;;2573107;53;21345;-68
2021/11/19 01:03:42;;;;;;;6.32;3.35;;;6.40;71.00;;;;;;2596649;52;20930;-68
2021/11/19 01:06:09;;;;;;;6.50;3.35;;;6.40;71.00;;;;;;2596005;52;21116;-68
2021/11/19 01:08:35;;;;;;;6.80;3.55;;;6.40;71.10;;;;;;2342897;54;21048;-69
2021/11/19 01:11:03;;;;;;;6.72;3.40;;;6.40;71.00;;;;;;2578174;53;21696;-67
2021/11/19 01:13:33;;;;;;;5.70;3.12;;;6.30;70.80;;;;;;2355292;54;21012;-68
2021/11/19 01:16:02;;;;;;;5.47;3.35;;;6.30;70.80;;;;;;2573881;53;21033;-68
2021/11/19 01:18:35;;;;;;;6.50;3.10;;;6.30;70.80;;;;;;2582717;52;20993;-67
2021/11/19 01:21:08;;;;;;;6.20;3.80;;;6.30;70.80;;;;;;2324544;54;21837;-69
2021/11/19 01:23:37;;;;;;;7.22;3.42;;;6.30;70.80;;;;;;2323967;54;20966;-68
2021/11/19 01:29:33;;;;;;;6.07;3.05;;;6.20;70.60;;;;;;2608027;52;20934;-68
2021/11/19 01:32:23;;;;;;;6.40;3.10;;;6.20;70.70;;;;;;2332987;54;21253;-69
2021/11/19 01:34:49;;;;;;;4.85;2.65;;;6.20;70.50;;;;;;2336789;54;21785;-69
2021/11/19 01:37:16;;;;;;;6.37;3.05;;;6.20;70.80;;;;;;2356279;53;21276;-69
2021/11/19 01:39:42;;;;;;;6.28;2.87;;;6.10;70.70;;;;;;2556597;53;20980;-67
2021/11/19 01:42:16;;;;;;;5.12;3.00;;;6.10;70.80;;;;;;2584173;52;20890;-68
2021/11/19 01:45:18;;;;;;;5.10;3.03;;;6.10;70.80;;;;;;2348217;54;22048;-68
2021/11/19 01:47:50;;;;;;;5.93;2.70;;;6.10;70.70;;;;;;2339325;54;21577;-68
2021/11/19 01:50:32;;;;;;;5.87;3.17;;;6.10;70.90;;;;;;2316613;54;21536;-68
2021/11/19 01:55:45;;;;;;;6.05;2.95;;;6.10;71.00;;;;;;2299015;54;20975;-69
2021/11/19 01:58:36;;;;;;;4.43;2.30;;;6.10;71.00;;;;;;2333577;54;21105;-68
2021/11/19 02:01:10;;;;;;;5.65;3.00;;;6.10;70.70;;;;;;2330621;54;21768;-68
2021/11/19 02:03:38;;;;;;;4.40;2.60;;;6.10;71.00;;;;;;2343916;53;20942;-67
2021/11/19 02:06:13;;;;;;;5.00;2.40;;;6.00;70.90;;;;;;2342831;53;21012;-68
2021/11/19 02:08:41;;;;;;;5.32;2.97;;;6.00;70.90;;;;;;2341273;54;21018;-69
2021/11/19 02:11:32;;;;;;;4.35;2.60;;;6.00;71.00;;;;;;2352594;54;20981;-68
2021/11/19 02:20:48;;;;;;;5.80;2.95;;;6.00;70.90;;;;;;2323308;54;21004;-69
2021/11/19 02:23:24;;;;;;;5.32;2.65;;;6.00;70.10;;;;;;2362753;54;20945;-67
2021/11/19 02:25:55;;;;;;;5.25;2.50;;;6.00;70.70;;;;;;2340127;54;20994;-69
2021/11/19 02:28:25;;;;;;;6.57;3.30;;;5.90;70.70;;;;;;2335745;54;20948;-67
2021/11/19 02:31:26;;;;;;;5.87;3.67;;;5.90;70.80;;;;;;2609004;52;21898;-69
2021/11/19 02:33:53;;;;;;;6.03;3.12;;;5.90;70.70;;;;;;2327145;54;20949;-69
2021/11/19 02:36:39;;;;;;;5.95;3.17;;;5.90;70.80;;;;;;2350106;54;21313;-68
2021/11/19 02:39:26;;;;;;;5.30;2.70;;;5.90;70.90;;;;;;2341272;54;21017;-69
2021/11/19 02:41:56;;;;;;;4.97;2.70;;;5.80;70.80;;;;;;2341890;53;21497;-68
2021/11/19 02:44:24;;;;;;;4.20;2.47;;;5.80;70.90;;;;;;2333892;53;21023;-68
2021/11/19 02:47:04;;;;;;;7.15;2.65;;;5.80;70.90;;;;;;2589301;53;21528;-68
2021/11/19 02:49:31;;;;;;;5.47;2.92;;;5.80;70.80;;;;;;2346656;54;21016;-68
2021/11/19 02:51:58;;;;;;;6.57;2.90;;;5.80;71.00;;;;;;2337769;54;21038;-69
2021/11/19 02:54:26;;;;;;;5.40;2.95;;;5.80;71.00;;;;;;2339249;54;21605;-68
2021/11/19 02:56:53;;;;;;;5.37;3.10;;;5.80;71.00;;;;;;2343225;54;20972;-69
2021/11/19 02:59:22;;;;;;;5.75;3.10;;;5.80;70.90;;;;;;2333631;54;20929;-69
2021/11/19 03:02:00;;;;;;;4.53;2.67;;;5.80;70.90;;;;;;2335454;54;20892;-68
2021/11/19 03:04:29;;;;;;;6.18;3.10;;;5.80;70.80;;;;;;2344928;54;20996;-69
2021/11/19 03:06:57;;;;;;;4.53;2.55;;;5.50;70.60;;;;;;2318117;54;20945;-68
2021/11/19 03:09:27;;;;;;;4.75;2.50;;;5.80;70.90;;;;;;2338854;54;21438;-69
2021/11/19 03:11:53;;;;;;;5.70;2.97;;;5.70;70.80;;;;;;2348486;53;20968;-68
2021/11/19 03:14:22;;;;;;;5.40;2.95;;;5.70;70.80;;;;;;2573141;53;20993;-68
2021/11/19 03:16:48;;;;;;;5.18;2.47;;;5.70;70.90;;;;;;2348087;54;22423;-68
2021/11/19 03:19:14;;;;;;;5.20;2.87;;;5.70;70.80;;;;;;2329728;54;20918;-68
2021/11/19 03:21:41;;;;;;;5.22;3.20;;;5.70;70.80;;;;;;2322639;54;21359;-69
2021/11/19 03:24:07;;;;;;;7.05;2.80;;;5.70;70.80;;;;;;2342161;54;20942;-68
2021/11/19 03:26:34;;;;;;;6.60;3.50;;;5.70;70.80;;;;;;2356065;53;21827;-68
2021/11/19 03:29:02;;;;;;;5.28;2.80;;;5.70;70.80;;;;;;2321519;54;20985;-68
2021/11/19 03:31:28;;;;;;;4.62;2.60;;;5.70;70.80;;;;;;2575285;52;21028;-68
2021/11/19 03:33:55;;;;;;;4.68;2.90;;;5.60;70.60;;;;;;2358153;54;20985;-68
2021/11/19 03:36:22;;;;;;;5.70;3.35;;;5.60;70.60;;;;;;2578311;52;20965;-68
2021/11/19 03:38:52;;;;;;;4.65;2.65;;;5.60;70.60;;;;;;2341829;54;21056;-68
2021/11/19 03:41:21;;;;;;;4.57;2.47;;;5.60;70.70;;;;;;2335078;54;20941;-68
2021/11/19 03:44:12;;;;;;;5.53;3.20;;;5.60;70.70;;;;;;2583362;53;20937;-69
2021/11/19 03:46:48;;;;;;;6.32;3.12;;;5.60;70.50;;;;;;2566510;53;21504;-69
2021/11/19 03:49:15;;;;;;;6.30;3.00;;;5.50;70.50;;;;;;2357981;54;20954;-69
2021/11/19 03:51:47;;;;;;;6.57;2.90;;;5.50;70.50;;;;;;2574329;53;21484;-69
2021/11/19 03:54:14;;;;;;;5.15;2.90;;;5.50;70.60;;;;;;2346448;54;21033;-69
2021/11/19 03:56:41;;;;;;;5.07;2.80;;;5.50;70.60;;;;;;2581580;52;20929;-69
2021/11/19 03:59:08;;;;;;;5.97;3.15;;;5.50;70.70;;;;;;2575096;53;21291;-68
2021/11/19 04:01:38;;;;;;;4.57;2.72;;;5.50;70.70;;;;;;2334047;54;20953;-68
2021/11/19 04:04:05;;;;;;;5.12;2.90;;;5.50;70.60;;;;;;2574530;52;20935;-69
2021/11/19 04:06:34;;;;;;;5.53;2.87;;;5.40;70.50;;;;;;2353762;54;20958;-68
2021/11/19 04:09:04;;;;;;;5.35;2.97;;;5.40;70.50;;;;;;2349024;54;20977;-68
2021/11/19 04:11:31;;;;;;;7.15;3.15;;;5.40;70.50;;;;;;2574605;53;22101;-68
2021/11/19 04:14:01;;;;;;;6.00;2.90;;;5.40;70.60;;;;;;2345009;54;20988;-67
2021/11/19 04:16:39;;;;;;;6.32;3.25;;;5.40;70.60;;;;;;2346518;54;20922;-67
2021/11/19 04:19:08;;;;;;;7.55;3.50;;;5.40;70.50;;;;;;2333736;54;20943;-69
2021/11/19 04:21:36;;;;;;;5.05;2.70;;;5.30;70.50;;;;;;2574393;52;20996;-68
2021/11/19 04:24:04;;;;;;;5.85;3.10;;;5.30;70.50;;;;;;2346987;53;21808;-68
2021/11/19 04:26:34;;;;;;;5.53;3.12;;;5.30;70.60;;;;;;2580327;52;21483;-69
2021/11/19 04:29:03;;;;;;;5.68;2.72;;;5.30;70.70;;;;;;2570515;53;20965;-69
2021/11/19 04:31:29;;;;;;;5.87;2.72;;;5.30;70.60;;;;;;2568339;52;21406;-68
2021/11/19 04:34:00;;;;;;;5.57;2.72;;;5.30;70.70;;;;;;2347273;54;20925;-68
2021/11/19 04:36:28;;;;;;;5.87;3.05;;;5.30;70.70;;;;;;2591491;52;21669;-69
2021/11/19 04:38:56;;;;;;;6.03;3.10;;;5.30;70.70;;;;;;2347276;54;20996;-67
2021/11/19 04:41:24;;;;;;;6.00;3.12;;;5.30;70.60;;;;;;2580412;53;21006;-68
2021/11/19 04:43:53;;;;;;;6.93;3.42;;;5.20;70.60;;;;;;2571909;53;21734;-68
2021/11/19 04:46:22;;;;;;;6.65;2.62;;;5.20;70.70;;;;;;2575802;52;20980;-68
2021/11/19 04:48:51;;;;;;;6.68;3.62;;;5.20;70.60;;;;;;2582519;53;21532;-68
2021/11/19 04:51:24;;;;;;;5.45;2.87;;;5.20;70.70;;;;;;2351068;53;21946;-68
2021/11/19 04:53:51;;;;;;;5.47;3.08;;;5.20;70.70;;;;;;2583484;52;20988;-69
2021/11/19 04:56:17;;;;;;;6.10;3.08;;;5.20;70.70;;;;;;2336430;54;21889;-69
2021/11/19 04:58:48;;;;;;;6.18;3.08;;;5.20;70.70;;;;;;2580489;52;20934;-68
2021/11/19 05:01:17;;;;;;;5.78;3.25;;;5.20;70.80;;;;;;2342989;54;21427;-68
2021/11/19 05:03:44;;;;;;;5.90;2.92;;;5.20;70.70;;;;;;2336274;54;20948;-68
2021/11/19 05:06:10;;;;;;;5.70;3.08;;;5.20;70.70;;;;;;2583145;52;20961;-69
2021/11/19 05:08:41;;;;;;;5.12;2.90;;;5.20;70.70;;;;;;2570435;53;20985;-69
2021/11/19 05:11:18;;;;;;;5.62;3.05;;;5.20;70.70;;;;;;2595367;52;20998;-68
2021/11/19 05:13:45;;;;;;;8.35;3.37;;;5.20;70.70;;;;;;2357465;54;20993;-68
2021/11/19 05:16:13;;;;;;;5.53;2.70;;;5.10;70.60;;;;;;2588051;53;20963;-68
2021/11/19 05:18:41;;;;;;;5.55;3.10;;;5.10;70.70;;;;;;2322677;54;21019;-69
2021/11/19 05:21:10;;;;;;;6.05;3.25;;;5.10;70.70;;;;;;2344278;54;20945;-68
2021/11/19 05:23:40;;;;;;;6.37;3.10;;;5.10;70.70;;;;;;2574724;53;20926;-68
2021/11/19 05:26:07;;;;;;;4.30;2.60;;;5.10;70.70;;;;;;2349849;54;20989;-68
2021/11/19 05:28:38;;;;;;;6.18;3.08;;;5.10;70.70;;;;;;2321802;54;21020;-68
2021/11/19 05:31:12;;;;;;;5.75;3.10;;;5.10;70.70;;;;;;2580497;53;21013;-69
2021/11/19 05:33:40;;;;;;;5.85;3.00;;;5.10;70.70;;;;;;2581132;52;20915;-68
2021/11/19 05:36:07;;;;;;;5.68;3.15;;;5.10;70.80;;;;;;2580067;52;21044;-68
2021/11/19 05:38:37;;;;;;;5.80;3.08;;;5.10;70.90;;;;;;2336458;54;20917;-68
2021/11/19 05:41:08;;;;;;;5.62;3.12;;;5.10;71.00;;;;;;2573341;52;21485;-68
2021/11/19 05:43:37;;;;;;;6.40;3.58;;;5.10;71.20;;;;;;2354057;54;20945;-68
2021/11/19 05:46:06;;;;;;;6.20;3.12;;;5.10;71.30;;;;;;2352575;54;20989;-69
2021/11/19 05:48:35;;;;;;;6.45;3.25;;;5.10;71.40;;;;;;2313341;54;21084;-68
2021/11/19 05:51:04;;;;;;;5.70;3.25;;;5.10;71.60;;;;;;2345318;54;20977;-68
2021/11/19 05:53:32;;;;;;;6.07;3.42;;;5.10;71.70;;;;;;2571774;52;20969;-68
2021/11/19 05:55:59;;;;;;;9.43;4.65;;;5.20;71.90;;;;;;2577573;52;20992;-68
2021/11/19 05:58:26;;;;;;;10.80;6.30;;;5.20;72.00;;;;;;2344116;54;21009;-69
2021/11/19 06:01:01;;;;;;;10.05;5.57;;;5.20;72.80;;;;;;2334801;54;21094;-69
2021/11/19 06:03:28;;;;;;;9.73;5.80;;;5.30;72.30;;;;;;2590301;52;21036;-68
2021/11/19 06:05:55;;;;;;;10.10;5.93;;;5.30;72.40;;;;;;2574390;53;21008;-69
2021/11/19 06:08:21;;;;;;;9.00;5.50;;;5.30;72.60;;;;;;2342726;54;21299;-69
2021/11/19 06:10:58;;;;;;;8.65;5.28;;;5.40;72.80;;;;;;2574210;53;21875;-68
2021/11/19 06:13:32;;;;;;;8.63;4.78;;;5.40;72.90;;;;;;2573517;52;20956;-68
2021/11/19 06:16:05;;;;;;;7.25;3.75;;;5.50;73.00;;;;;;2573806;52;20996;-69
2021/11/19 06:18:34;;;;;;;7.00;4.05;;;5.50;73.00;;;;;;2319770;54;21579;-68
2021/11/19 06:21:10;;;;;;;6.12;3.72;;;5.60;73.10;;;;;;2593011;53;21020;-68
2021/11/19 06:23:44;;;;;;;6.20;3.85;;;5.60;73.20;;;;;;2592022;52;20945;-69
2021/11/19 06:26:12;;;;;;;6.50;3.50;;;5.70;73.30;;;;;;2582655;52;21014;-68
2021/11/19 06:28:41;;;;;;;8.38;4.37;;;5.70;73.30;;;;;;2339941;54;20976;-69
2021/11/19 06:31:13;;;;;;;5.85;3.85;;;5.80;73.30;;;;;;2347993;54;20948;-69
2021/11/19 06:33:41;;;;;;;7.37;4.25;;;5.80;73.20;;;;;;2342532;54;20973;-69
2021/11/19 06:36:08;;;;;;;7.30;4.60;;;5.90;73.30;;;;;;2330991;54;20897;-69
2021/11/19 06:38:37;;;;;;;6.53;3.92;;;5.90;73.20;;;;;;2340240;54;20972;-68
2021/11/19 06:41:09;;;;;;;8.60;4.82;;;5.90;73.10;;;;;;2561004;53;20929;-68
2021/11/19 06:43:38;;;;;;;9.35;4.50;;;6.00;73.10;;;;;;2572696;52;21004;-69
2021/11/19 06:46:06;;;;;;;8.88;5.30;;;6.00;72.90;;;;;;2347653;54;21609;-68
2021/11/19 06:48:33;;;;;;;8.30;4.57;;;6.00;72.80;;;;;;2338226;54;21573;-68
2021/11/19 06:51:03;;;;;;;9.25;4.95;;;6.10;72.70;;;;;;2340166;54;20958;-69
2021/11/19 06:53:33;;;;;;;9.75;4.80;;;6.10;72.40;;;;;;2334506;54;20940;-69
2021/11/19 06:55:59;;;;;;;9.13;5.50;;;6.10;72.30;;;;;;2575514;52;20953;-69
2021/11/19 06:58:28;;;;;;;8.30;5.03;;;6.10;72.20;;;;;;2567682;52;20962;-69
2021/11/19 07:00:55;;;;;;;6.55;4.18;;;6.10;72.10;;;;;;2600873;52;21458;-69
2021/11/19 07:03:22;;;;;;;7.60;4.57;;;6.10;72.10;;;;;;2576264;53;20936;-69
2021/11/19 07:05:48;;;;;;;8.65;5.28;;;6.10;72.10;;;;;;2602391;53;22059;-68
2021/11/19 07:08:17;;;;;;;7.87;5.03;;;6.10;72.10;;;;;;2579863;53;21014;-69
2021/11/19 07:10:44;;;;;;;8.15;4.50;;;6.10;72.10;;;;;;2563751;53;21011;-68
2021/11/19 07:13:12;;;;;;;7.30;4.37;;;6.10;72.10;;;;;;2339638;54;20973;-69
2021/11/19 07:15:43;;;;;;;7.20;4.45;;;6.10;72.20;;;;;;2589659;52;20978;-69
2021/11/19 07:18:11;;;;;;;7.35;4.72;;;6.10;72.40;;;;;;2352708;54;20998;-68
2021/11/19 07:20:37;;;;;;;6.75;4.15;;;6.10;72.40;;;;;;2599352;52;20961;-68
2021/11/19 07:23:08;;;;;;;7.15;4.22;;;6.20;72.60;;;;;;2580824;52;20954;-68
2021/11/19 07:25:37;;;;;;;6.82;4.32;;;6.20;72.70;;;;;;2329197;54;20920;-69
2021/11/19 07:28:05;;;;;;;8.75;4.15;;;6.20;72.80;;;;;;2571898;53;20939;-69
2021/11/19 07:30:41;;;;;;;7.82;3.90;;;6.20;72.90;;;;;;2586984;52;21054;-69
2021/11/19 07:33:08;;;;;;;6.97;3.80;;;6.20;73.00;;;;;;2340424;54;20960;-69
2021/11/19 07:35:35;;;;;;;7.78;3.80;;;6.30;73.20;;;;;;2599801;52;21958;-69
2021/11/19 07:38:02;;;;;;;6.75;4.03;;;6.30;73.40;;;;;;2364480;56;21050;-69
2021/11/19 07:40:33;;;;;;;6.85;3.92;;;6.30;73.60;;;;;;2597455;52;21057;-69
2021/11/19 07:43:00;;;;;;;6.60;4.03;;;6.40;73.80;;;;;;2335657;54;21475;-69
2021/11/19 07:45:34;;;;;;;6.55;4.00;;;6.40;74.00;;;;;;2580006;53;21032;-68
2021/11/19 07:48:04;;;;;;;7.05;3.70;;;6.50;74.20;;;;;;2350126;54;20992;-69
2021/11/19 07:50:35;;;;;;;6.93;4.12;;;6.60;74.40;;;;;;2334814;54;20937;-70
2021/11/19 07:53:02;;;;;;;7.07;4.05;;;6.60;74.50;;;;;;2333426;54;21525;-69
2021/11/19 07:55:29;;;;;;;5.72;3.75;;;6.70;74.60;;;;;;2592885;52;21457;-68
2021/11/19 07:57:57;;;;;;;8.70;5.07;;;6.80;74.70;;;;;;2351697;54;20973;-69
2021/11/19 08:00:29;;;;;;;7.20;4.93;;;6.80;74.70;;;;;;2601287;52;21038;-69
2021/11/19 08:02:57;;;;;;;8.27;4.53;;;6.90;74.80;;;;;;2352498;54;20918;-69
2021/11/19 08:05:24;;;;;;;7.55;4.93;;;7.00;74.90;;;;;;2574572;52;21795;-69
2021/11/19 08:07:52;;;;;;;8.05;4.53;;;7.00;74.80;;;;;;2339371;54;21035;-69
2021/11/19 08:10:18;;;;;;;7.15;4.35;;;7.10;74.80;;;;;;2590249;52;20956;-69
2021/11/19 08:12:49;;;;;;;7.05;4.30;;;7.10;74.70;;;;;;2338496;54;20968;-69
2021/11/19 08:15:18;;;;;;;7.90;5.12;;;7.20;74.80;;;;;;2568310;53;21000;-69
2021/11/19 08:17:49;;;;;;;8.70;5.03;;;7.30;74.90;;;;;;2345795;54;20933;-68
2021/11/19 08:20:37;;;;;;;7.55;4.37;;;7.30;74.90;;;;;;2575071;53;20996;-68
2021/11/19 08:23:07;;;;;;;8.75;4.93;;;7.40;74.80;;;;;;2319353;54;20983;-70
2021/11/19 08:25:34;;;;;;;7.57;4.75;;;7.40;74.80;;;;;;2341148;54;20988;-70
2021/11/19 08:28:06;;;;;;;6.43;3.72;;;7.50;74.90;;;;;;2348461;54;20906;-68
2021/11/19 08:30:44;;;;;;;13.02;5.53;;;7.60;74.90;;;;;;2616242;52;21034;-69
2021/11/19 08:33:12;;;;;;;10.52;5.60;;;7.60;74.80;;;;;;2353643;56;21582;-69
2021/11/19 08:35:42;;;;;;;8.70;5.75;;;7.70;74.80;;;;;;2611881;52;21856;-69
2021/11/19 08:38:11;;;;;;;8.75;5.37;;;7.70;74.60;;;;;;2363760;56;21519;-69
2021/11/19 08:40:43;;;;;;;10.25;6.30;;;7.80;74.60;;;;;;2615553;52;21149;-69
2021/11/19 08:43:15;;;;;;;14.43;7.05;;;7.80;74.40;;;;;;2363816;56;21089;-68
2021/11/19 08:45:43;;;;;;;10.60;7.30;;;7.80;73.90;;;;;;2616363;52;21029;-69
2021/11/19 08:48:09;;;;;;;10.10;5.75;;;7.80;73.70;;;;;;2364132;56;21041;-69
2021/11/19 08:50:39;;;;;;;8.70;5.45;;;7.80;73.70;;;;;;2577026;52;21033;-69
2021/11/19 08:53:10;;;;;;;8.35;5.25;;;7.90;73.90;;;;;;2563246;52;20965;-70
2021/11/19 08:55:56;;;;;;;8.67;5.17;;;7.90;74.00;;;;;;2341415;54;21432;-68
2021/11/19 08:58:27;;;;;;;8.55;5.53;;;7.90;73.80;;;;;;2347814;54;21696;-69
2021/11/19 09:00:55;;;;;;;8.65;4.85;;;7.90;74.10;;;;;;2347221;54;20957;-69
2021/11/19 09:03:22;;;;;;;8.45;5.57;;;8.00;74.30;;;;;;2352065;54;20993;-69
2021/11/19 09:05:50;;;;;;;9.80;6.12;;;8.00;74.30;;;;;;2557075;53;21244;-69
2021/11/19 09:08:19;;;;;;;9.63;6.18;;;8.00;75.00;;;;;;2575048;52;21013;-70
2021/11/19 09:10:47;;;;;;;8.48;5.72;;;8.10;74.20;;;;;;2590844;52;21057;-69
2021/11/19 09:13:15;;;;;;;7.82;4.75;;;8.20;74.30;;;;;;2355836;54;20919;-69
2021/11/19 09:15:42;;;;;;;7.80;4.87;;;8.20;74.50;;;;;;2353198;54;21084;-69
2021/11/19 09:18:36;;;;;;;9.23;5.47;;;8.20;74.60;;;;;;2359546;54;20934;-68
2021/11/19 09:21:28;;;;;;;7.90;5.05;;;8.30;74.70;;;;;;2321677;53;20917;-68
2021/11/19 09:24:00;;;;;;;8.27;4.87;;;8.40;74.60;;;;;;2570910;52;20967;-69
2021/11/19 09:26:50;;;;;;;6.87;4.47;;;8.50;74.80;;;;;;2321826;54;21041;-70
2021/11/19 09:29:20;;;;;;;7.15;4.87;;;8.50;74.60;;;;;;2566035;53;21797;-69
2021/11/19 09:31:48;;;;;;;8.95;5.10;;;8.50;74.70;;;;;;2568110;53;20934;-70
2021/11/19 09:34:16;;;;;;;8.75;5.37;;;8.60;74.80;;;;;;2338168;53;20941;-69
2021/11/19 09:36:42;;;;;;;8.93;5.40;;;8.60;74.70;;;;;;2335272;54;21477;-70
2021/11/19 09:39:10;;;;;;;9.02;5.03;;;8.70;74.70;;;;;;2311598;54;20971;-69
2021/11/19 09:44:19;;;;;;;9.50;5.93;;;8.70;74.70;;;;;;2544919;53;21966;-69
2021/11/19 09:52:29;;;;;;;7.37;4.37;;;8.80;74.10;;;;;;2326859;53;21859;-70
2021/11/19 09:55:33;;;;;;;6.53;3.65;;;8.90;73.60;;;;;;2334947;54;21048;-70
2021/11/19 09:58:39;;;;;;;9.93;4.80;;;9.00;74.00;;;;;;2345259;53;20894;-69
2021/11/19 10:03:56;;;;;;;10.15;4.85;;;8.80;73.70;;;;;;2323956;54;20980;-70
2021/11/19 10:10:55;;;;;;;6.80;4.18;;;9.10;74.20;;;;;;2346014;53;20969;-69
2021/11/19 10:16:10;;;;;;;8.02;3.67;;;9.10;73.80;;;;;;2340817;53;20936;-70
2021/11/19 10:20:28;;;;;;;8.15;4.37;;;9.20;74.00;;;;;;2341233;53;21593;-70
2021/11/19 10:23:02;;;;;;;6.72;4.45;;;9.20;73.80;;;;;;2333759;53;21028;-69
2021/11/19 10:26:28;;;;;;;7.10;4.37;;;9.30;74.10;;;;;;2310567;54;21484;-68
2021/11/19 10:29:20;;;;;;;8.30;4.35;;;9.30;74.10;;;;;;2342548;53;21510;-70
2021/11/19 10:31:48;;;;;;;8.88;4.93;;;9.40;74.20;;;;;;2333592;53;21318;-70
2021/11/19 10:34:32;;;;;;;11.40;5.45;;;9.40;74.40;;;;;;2327007;54;21023;-69
2021/11/19 10:37:26;;;;;;;7.18;4.65;;;9.40;74.40;;;;;;2571953;53;21808;-70
2021/11/19 10:40:24;;;;;;;8.35;5.43;;;9.40;74.40;;;;;;2540501;53;20937;-69
2021/11/19 10:43:22;;;;;;;7.10;4.72;;;9.50;74.30;;;;;;2325502;54;21456;-69
2021/11/19 10:46:28;;;;;;;7.50;4.55;;;9.50;74.30;;;;;;2325817;54;20944;-69
2021/11/19 10:50:53;;;;;;;8.30;5.12;;;9.60;74.40;;;;;;2318969;54;21541;-69
2021/11/19 10:59:51;;;;;;;6.87;4.05;;;9.70;74.00;;;;;;2359360;54;20957;-70
2021/11/19 11:02:33;;;;;;;7.20;4.25;;;9.70;74.10;;;;;;2342530;54;20961;-71
2021/11/19 11:05:02;;;;;;;;;;;9.90;74.60;;;;;;2342521;54;21104;-71
2021/11/19 11:07:32;;;;;;;8.27;4.87;;;9.90;73.90;;;;;;2584418;52;20058;-70
2021/11/19 11:10:24;;;;;;;8.98;6.10;;;9.90;74.50;;;;;;2320821;54;20959;-70
2021/11/19 11:12:52;;;;;;;9.17;5.57;;;10.00;73.40;;;;;;2603754;52;21410;-71
2021/11/19 11:15:37;;;;;;;11.40;6.18;;;10.00;73.60;;;;;;2330359;54;21215;-71
2021/11/19 11:19:25;;;;;;;9.55;6.68;;;10.00;73.30;;;;;;2594873;53;21363;-70
2021/11/19 11:22:01;;;;;;;12.60;6.85;;;10.10;72.90;;;;;;2348744;54;21009;-70
2021/11/19 11:25:03;;;;;;;13.45;7.25;;;10.10;73.50;;;;;;2580869;52;21133;-69
2021/11/19 11:28:19;;;;;;;10.98;6.75;;;10.20;73.00;;;;;;2600813;53;20938;-70
2021/11/19 11:31:09;;;;;;;13.18;6.97;;;10.20;73.20;;;;;;2613132;52;21100;-69
2021/11/19 11:34:26;;;;;;;10.27;6.80;;;10.20;73.20;;;;;;2363713;56;21046;-70
2021/11/19 11:39:55;;;;;;;9.88;6.43;;;10.00;72.80;;;;;;2569034;52;21710;-71
2021/11/19 11:42:47;;;;;;;12.50;6.95;;;10.30;72.40;;;;;;2344471;54;21037;-70
2021/11/19 11:45:58;;;;;;;15.15;8.18;;;10.30;73.90;;;;;;2607651;52;20984;-69
2021/11/19 11:48:58;;;;;;;12.82;7.82;;;10.40;72.60;;;;;;2317905;54;20972;-69
2021/11/19 12:01:28;;;;;;;14.38;8.57;;;10.40;72.70;;;;;;2344565;54;20953;-69
2021/11/19 12:03:59;;;;;;;14.60;7.07;;;10.40;73.00;;;;;;2359247;54;21025;-71
2021/11/19 12:06:48;;;;;;;14.05;7.60;;;10.50;73.70;;;;;;2342488;54;21055;-71
2021/11/19 12:09:24;;;;;;;12.45;7.00;;;10.50;73.90;;;;;;2346415;54;21082;-70
2021/11/19 12:12:43;;;;;;;13.07;7.95;;;10.60;74.40;;;;;;2575437;52;20961;-69
2021/11/19 12:18:54;;;;;;;12.23;6.45;;;10.70;74.10;;;;;;2337465;54;20973;-70
2021/11/19 12:21:34;;;;;;;7.93;4.20;;;10.80;73.70;;;;;;2353080;54;20928;-71
2021/11/19 12:24:35;;;;;;;7.70;3.67;;;11.00;74.70;;;;;;2337813;54;21040;-70
2021/11/19 12:27:25;;;;;;;5.75;3.20;;;11.10;74.70;;;;;;2584374;52;20946;-70
2021/11/19 12:30:19;;;;;;;4.75;2.67;;;11.20;75.40;;;;;;2351503;54;21029;-71
2021/11/19 12:32:53;;;;;;;5.55;2.97;;;11.20;75.20;;;;;;2572192;53;20980;-69
2021/11/19 12:35:42;;;;;;;5.90;3.20;;;11.40;75.60;;;;;;2309713;54;21030;-70
2021/11/19 12:38:25;;;;;;;5.62;2.60;;;11.40;75.10;;;;;;2584951;52;20958;-70
2021/11/19 12:41:17;;;;;;;;;;;11.50;75.10;;;;;;2313883;54;21066;-70
2021/11/19 12:44:42;;;;;;;6.07;3.22;;;11.60;74.10;;;;;;2335961;54;20123;-71
2021/11/19 12:47:35;;;;;;;6.97;3.55;;;11.70;74.10;;;;;;2566743;52;20973;-71
2021/11/19 12:51:01;;;;;;;7.40;4.28;;;11.70;73.90;;;;;;2323885;54;21010;-70
2021/11/19 12:53:59;;;;;;;6.93;3.50;;;11.80;73.40;;;;;;2331887;53;21507;-71
2021/11/19 12:59:20;;;;;;;10.00;4.55;;;11.80;73.70;;;;;;2544535;53;21109;-71
2021/11/19 13:05:24;;;;;;;5.70;3.15;;;11.90;73.70;;;;;;2544545;53;21098;-70
2021/11/19 13:08:15;;;;;;;5.37;3.05;;;12.00;73.10;;;;;;2543981;53;21054;-71
2021/11/19 13:10:44;;;;;;;6.57;3.50;;;12.00;74.40;;;;;;2322897;53;20924;-70
2021/11/19 13:13:24;;;;;;;6.57;4.00;;;12.00;74.00;;;;;;2573111;52;21152;-70
2021/11/19 13:16:33;;;;;;;5.95;3.70;;;12.00;73.50;;;;;;2334494;54;21436;-71
2021/11/19 13:19:00;;;;;;;7.32;3.97;;;12.00;72.50;;;;;;2600416;52;21223;-71
2021/11/19 13:22:45;;;;;;;7.43;3.95;;;12.10;73.30;;;;;;2336245;54;20959;-71
2021/11/19 13:25:39;;;;;;;6.85;3.42;;;12.00;72.20;;;;;;2348759;54;21025;-71
2021/11/19 13:28:06;;;;;;;8.30;4.37;;;12.00;72.50;;;;;;2340752;54;21049;-71
2021/11/19 13:30:40;;;;;;;7.37;4.18;;;12.00;73.20;;;;;;2585685;53;20977;-71
2021/11/19 13:33:24;;;;;;;8.82;4.68;;;12.00;72.90;;;;;;2317135;54;21073;-70
2021/11/19 13:36:44;;;;;;;7.43;4.78;;;12.10;72.40;;;;;;2573971;52;20961;-71
2021/11/19 13:39:30;;;;;;;7.53;4.55;;;12.10;72.20;;;;;;2340816;54;21099;-70
2021/11/19 13:42:43;;;;;;;7.53;4.53;;;12.10;72.50;;;;;;2344512;54;21003;-70
2021/11/19 13:47:05;;;;;;;6.62;4.20;;;12.10;72.10;;;;;;2551954;53;20940;-70
2021/11/19 13:49:48;;;;;;;5.53;3.00;;;12.10;72.80;;;;;;2578204;52;20953;-71
2021/11/19 13:52:26;;;;;;;6.30;3.70;;;12.10;72.50;;;;;;2341553;54;21553;-71
2021/11/19 13:55:19;;;;;;;6.43;3.55;;;12.10;72.80;;;;;;2581272;53;20977;-70
2021/11/19 13:57:54;;;;;;;6.65;3.85;;;12.10;72.50;;;;;;2575218;53;20918;-70
2021/11/19 14:00:29;;;;;;;5.45;3.60;;;12.10;73.10;;;;;;2361407;53;20953;-70
2021/11/19 14:02:57;;;;;;;6.10;4.12;;;12.10;73.00;;;;;;2355326;54;20993;-71
2021/11/19 14:05:50;;;;;;;6.35;3.62;;;12.20;73.30;;;;;;2575751;53;20960;-71
2021/11/19 14:08:27;;;;;;;6.37;3.97;;;12.20;72.40;;;;;;2338922;54;21930;-71
2021/11/19 14:11:00;;;;;;;7.65;4.20;;;12.20;73.10;;;;;;2572142;53;21073;-70
2021/11/19 14:13:38;;;;;;;5.68;3.62;;;12.10;72.90;;;;;;2341556;54;21017;-70
2021/11/19 14:17:05;;;;;;;5.65;3.65;;;12.20;72.70;;;;;;2356046;53;21013;-71
2021/11/19 14:19:45;;;;;;;6.47;3.95;;;12.20;71.90;;;;;;2354456;53;21831;-70
2021/11/19 14:22:32;;;;;;;6.25;4.15;;;12.20;72.90;;;;;;2578635;52;21742;-71
2021/11/19 14:27:27;;;;;;;9.55;4.95;;;12.20;72.30;;;;;;2576750;53;21828;-70
2021/11/19 14:31:24;;;;;;;6.80;3.87;;;12.20;71.50;;;;;;2587829;52;21962;-71
2021/11/19 14:34:11;;;;;;;7.22;3.70;;;12.20;71.40;;;;;;2338573;54;21044;-70
2021/11/19 14:36:55;;;;;;;7.55;4.18;;;12.10;71.80;;;;;;2552199;53;21040;-71
2021/11/19 14:39:26;;;;;;;8.35;4.90;;;12.10;71.90;;;;;;2351680;54;21004;-71
2021/11/19 14:41:58;;;;;;;7.60;4.95;;;12.10;72.30;;;;;;2586490;52;21410;-71
2021/11/19 14:44:41;;;;;;;10.70;4.57;;;12.00;72.10;;;;;;2347239;53;21411;-70
2021/11/19 14:47:13;;;;;;;6.97;3.80;;;12.00;72.00;;;;;;2310591;54;20987;-70